Time;durP1;ratioP1;P1;durP2;ratioP2;P2;SDS_P1;SDS_P2;PMS_P1;PMS_P2;Temp;Humidity;BMP_temperature;BMP_pressure;BME280_temperature;BME280_humidity;BME280_pressure;Samples;Min_cycle;Max_cycle;Signal;HPM_P1;HPM_P2
2021/08/10 00:00:17;;;;;;;10.67;5.73;;;15.00;99.90;;;;;;5041421;28;20449;-59
2021/08/10 00:02:44;;;;;;;5.93;5.33;;;15.00;99.90;;;;;;5042880;28;20441;-59
2021/08/10 00:05:12;;;;;;;10.93;6.13;;;14.90;99.90;;;;;;5041902;28;20456;-64
2021/08/10 00:07:39;;;;;;;6.43;5.40;;;14.80;99.90;;;;;;5039558;28;20473;-62
2021/08/10 00:10:07;;;;;;;9.70;6.30;;;14.80;99.90;;;;;;5047322;28;20506;-60
2021/08/10 00:12:34;;;;;;;18.30;6.87;;;14.80;99.90;;;;;;5039242;28;20460;-59
2021/08/10 00:15:01;;;;;;;5.20;4.50;;;14.70;99.90;;;;;;5039608;28;20452;-63
2021/08/10 00:17:27;;;;;;;5.07;4.53;;;14.70;99.90;;;;;;5050220;28;20464;-60
2021/08/10 00:19:54;;;;;;;6.40;5.17;;;14.70;99.90;;;;;;5042849;28;20471;-61
2021/08/10 00:22:22;;;;;;;33.33;7.53;;;14.70;99.90;;;;;;5040159;28;20452;-61
2021/08/10 00:24:49;;;;;;;8.00;4.83;;;14.60;99.90;;;;;;5040793;28;20441;-63
2021/08/10 00:27:16;;;;;;;7.63;5.23;;;14.60;99.90;;;;;;5039162;28;20464;-61
2021/08/10 00:29:43;;;;;;;6.30;4.87;;;14.50;99.90;;;;;;5039174;28;20450;-62
2021/08/10 00:32:10;;;;;;;8.13;5.50;;;14.50;99.90;;;;;;5039719;28;20453;-61
2021/08/10 00:34:37;;;;;;;6.03;5.40;;;14.40;99.90;;;;;;5042512;28;20471;-63
2021/08/10 00:37:05;;;;;;;12.33;5.17;;;14.50;99.90;;;;;;5035772;28;20449;-64
2021/08/10 00:39:33;;;;;;;8.50;6.17;;;14.50;99.90;;;;;;5031700;28;20499;-62
2021/08/10 00:42:00;;;;;;;7.33;4.83;;;14.50;99.90;;;;;;5031209;28;20445;-64
2021/08/10 00:44:28;;;;;;;9.80;5.30;;;14.40;99.90;;;;;;5031379;28;20436;-63
2021/08/10 00:46:55;;;;;;;8.53;4.23;;;14.30;99.90;;;;;;5031180;28;20449;-64
2021/08/10 00:49:21;;;;;;;12.50;6.03;;;14.30;99.90;;;;;;5031305;28;20448;-64
2021/08/10 00:51:49;;;;;;;7.97;5.40;;;14.20;99.90;;;;;;5043014;28;20448;-61
2021/08/10 00:54:16;;;;;;;5.47;4.47;;;14.20;99.90;;;;;;5051102;28;20483;-63
2021/08/10 00:56:45;;;;;;;7.93;5.00;;;14.20;99.90;;;;;;5050793;28;20864;-63
2021/08/10 00:59:11;;;;;;;9.20;4.67;;;14.10;99.90;;;;;;5050934;28;20476;-64
2021/08/10 01:01:38;;;;;;;10.10;5.17;;;14.10;99.90;;;;;;5050847;28;20444;-63
2021/08/10 01:04:05;;;;;;;9.10;5.60;;;14.10;99.90;;;;;;5050956;28;20447;-62
2021/08/10 01:06:42;;;;;;;5.60;4.10;;;14.00;99.90;;;;;;5049789;28;20448;-64
2021/08/10 01:09:12;;;;;;;6.20;5.30;;;14.00;99.90;;;;;;5031156;28;20958;-62
2021/08/10 01:11:49;;;;;;;9.73;5.40;;;14.00;99.90;;;;;;5031022;28;20453;-60
2021/08/10 01:14:25;;;;;;;8.17;4.50;;;14.00;99.90;;;;;;5031064;28;20488;-62
2021/08/10 01:16:57;;;;;;;15.00;4.80;;;14.00;99.90;;;;;;5030985;28;20846;-64
2021/08/10 01:19:42;;;;;;;5.67;5.17;;;14.00;99.90;;;;;;5031106;28;20917;-62
2021/08/10 01:22:10;;;;;;;7.83;4.90;;;14.00;99.90;;;;;;5031831;28;20970;-64
2021/08/10 01:24:43;;;;;;;10.37;5.03;;;14.10;99.90;;;;;;5031046;28;20491;-63
2021/08/10 01:27:33;;;;;;;12.87;5.47;;;14.10;99.90;;;;;;5030723;28;20468;-62
2021/08/10 01:30:06;;;;;;;7.37;5.00;;;14.20;99.90;;;;;;5030563;28;20451;-64
2021/08/10 01:32:35;;;;;;;7.27;4.57;;;14.20;99.90;;;;;;5030873;28;20448;-65
2021/08/10 01:35:02;;;;;;;6.53;4.90;;;14.30;99.90;;;;;;5031922;28;20484;-61
2021/08/10 01:37:32;;;;;;;6.23;5.10;;;14.30;99.90;;;;;;5050655;28;20464;-64
2021/08/10 01:40:01;;;;;;;8.50;5.70;;;14.30;99.90;;;;;;5050692;28;20447;-62
2021/08/10 01:42:28;;;;;;;9.10;5.27;;;14.40;99.90;;;;;;5050755;28;20444;-64
2021/08/10 01:44:56;;;;;;;7.90;5.17;;;14.40;99.90;;;;;;5050604;28;20815;-63
2021/08/10 01:47:24;;;;;;;9.10;5.53;;;14.50;99.90;;;;;;5052000;28;20997;-64
2021/08/10 01:49:53;;;;;;;8.33;5.50;;;14.50;99.90;;;;;;5054558;28;20455;-64
2021/08/10 01:52:22;;;;;;;6.93;4.80;;;14.50;99.90;;;;;;5052464;28;20822;-64
2021/08/10 01:54:49;;;;;;;6.30;4.30;;;14.60;99.90;;;;;;5054288;28;20479;-64
2021/08/10 01:57:18;;;;;;;7.30;6.27;;;14.60;99.90;;;;;;5054065;28;20486;-63
2021/08/10 01:59:47;;;;;;;5.30;4.73;;;14.60;99.90;;;;;;5054010;28;20475;-64
2021/08/10 02:02:14;;;;;;;8.73;5.50;;;14.70;99.90;;;;;;5053989;28;20444;-64
2021/08/10 02:04:41;;;;;;;6.90;5.20;;;14.70;99.90;;;;;;5054234;28;20440;-64
2021/08/10 02:07:09;;;;;;;5.97;4.83;;;14.70;99.90;;;;;;5054150;28;20444;-64
2021/08/10 02:09:38;;;;;;;6.83;4.50;;;14.70;99.90;;;;;;5051890;28;20462;-64
2021/08/10 02:12:07;;;;;;;9.10;4.83;;;14.70;99.90;;;;;;5053774;28;20813;-63
2021/08/10 02:14:34;;;;;;;12.10;5.37;;;14.80;99.90;;;;;;5053817;28;20498;-64
2021/08/10 02:17:05;;;;;;;6.00;4.13;;;14.80;99.90;;;;;;5053909;28;20448;-64
2021/08/10 02:19:33;;;;;;;6.60;5.00;;;14.80;99.90;;;;;;5054018;28;20444;-63
2021/08/10 02:22:05;;;;;;;12.77;4.47;;;14.80;99.90;;;;;;5051637;28;20448;-64
2021/08/10 02:24:37;;;;;;;5.93;3.87;;;14.80;99.90;;;;;;5044434;28;20812;-64
2021/08/10 02:27:08;;;;;;;5.80;4.03;;;14.90;99.90;;;;;;5051663;28;20462;-64
2021/08/10 02:29:38;;;;;;;6.17;5.57;;;14.90;99.90;;;;;;5038102;28;20448;-64
2021/08/10 02:32:07;;;;;;;12.60;8.10;;;14.90;99.90;;;;;;5043433;28;20448;-64
2021/08/10 02:34:35;;;;;;;9.87;8.87;;;14.90;99.90;;;;;;5042680;28;20861;-64
2021/08/10 02:37:05;;;;;;;10.20;7.97;;;15.00;99.90;;;;;;5036986;28;20447;-64
2021/08/10 02:39:35;;;;;;;7.03;5.00;;;15.00;99.90;;;;;;5051305;28;20450;-64
2021/08/10 02:42:02;;;;;;;10.60;4.47;;;15.00;99.90;;;;;;5044795;28;20448;-64
2021/08/10 02:44:30;;;;;;;4.97;4.43;;;15.00;99.90;;;;;;5048837;28;20877;-64
2021/08/10 02:46:57;;;;;;;9.33;4.97;;;15.00;99.90;;;;;;5041048;28;20453;-64
2021/08/10 02:49:23;;;;;;;12.47;5.67;;;15.10;99.90;;;;;;5047968;28;20444;-64
2021/08/10 02:51:50;;;;;;;9.67;5.17;;;15.10;99.90;;;;;;5040847;28;20449;-63
2021/08/10 02:54:17;;;;;;;6.53;5.17;;;15.20;99.90;;;;;;5042486;28;21107;-64
2021/08/10 02:56:53;;;;;;;5.40;4.33;;;15.20;99.90;;;;;;5049500;28;20440;-65
2021/08/10 02:59:24;;;;;;;8.30;6.37;;;15.20;99.90;;;;;;5042646;28;20440;-65
2021/08/10 03:01:56;;;;;;;5.80;4.40;;;15.20;99.90;;;;;;5044047;28;20467;-65
2021/08/10 03:04:24;;;;;;;6.13;4.00;;;15.20;99.90;;;;;;5041642;28;20436;-64
2021/08/10 03:06:54;;;;;;;12.10;5.00;;;15.10;99.90;;;;;;5045976;28;20440;-64
2021/08/10 03:09:21;;;;;;;7.90;5.07;;;15.00;99.90;;;;;;5042052;28;20451;-65
2021/08/10 03:11:52;;;;;;;7.70;4.33;;;14.90;99.90;;;;;;5040546;28;20438;-64
2021/08/10 03:14:20;;;;;;;4.40;3.27;;;14.80;99.90;;;;;;5042287;28;20495;-64
2021/08/10 03:16:48;;;;;;;6.37;4.57;;;14.80;99.90;;;;;;5034590;28;20453;-64
2021/08/10 03:19:16;;;;;;;6.60;4.33;;;14.80;99.90;;;;;;5040368;28;20457;-64
2021/08/10 03:21:45;;;;;;;6.33;3.50;;;14.80;99.90;;;;;;5046240;28;20445;-64
2021/08/10 03:24:13;;;;;;;8.67;5.63;;;14.70;99.90;;;;;;5044550;28;20949;-64
2021/08/10 03:26:42;;;;;;;7.47;5.73;;;14.70;99.90;;;;;;5043244;28;20920;-64
2021/08/10 03:29:11;;;;;;;6.57;3.97;;;14.60;99.90;;;;;;5046486;28;20476;-64
2021/08/10 03:31:39;;;;;;;9.47;5.67;;;14.60;99.90;;;;;;5045787;28;20822;-63
2021/08/10 03:34:06;;;;;;;6.10;4.30;;;14.60;99.90;;;;;;5052405;28;20487;-64
2021/08/10 03:36:33;;;;;;;4.67;4.10;;;14.60;99.90;;;;;;5052256;28;20945;-64
2021/08/10 03:39:01;;;;;;;7.63;4.70;;;14.60;99.90;;;;;;5052147;28;20460;-64
2021/08/10 03:41:28;;;;;;;9.60;5.37;;;14.60;99.90;;;;;;5039928;28;20456;-65
2021/08/10 03:43:56;;;;;;;7.53;5.23;;;14.60;99.90;;;;;;5032328;28;20460;-64
2021/08/10 03:46:25;;;;;;;5.13;4.30;;;14.60;99.90;;;;;;5032333;28;20441;-64
2021/08/10 03:48:51;;;;;;;8.67;4.93;;;14.60;99.90;;;;;;5032188;28;20469;-64
2021/08/10 03:51:19;;;;;;;6.50;4.93;;;14.50;99.90;;;;;;5031967;28;20441;-63
2021/08/10 03:53:47;;;;;;;6.50;4.33;;;14.50;99.90;;;;;;5032106;28;20450;-64
2021/08/10 03:56:15;;;;;;;4.80;4.40;;;14.50;99.90;;;;;;5031805;28;20583;-64
2021/08/10 03:58:48;;;;;;;5.03;4.50;;;14.50;99.90;;;;;;5031866;28;20484;-64
2021/08/10 04:01:16;;;;;;;7.20;4.50;;;14.60;99.90;;;;;;5037527;28;20444;-65
2021/08/10 04:03:45;;;;;;;5.93;5.27;;;14.60;99.90;;;;;;5049888;28;20445;-64
2021/08/10 04:06:12;;;;;;;8.37;4.40;;;14.60;99.90;;;;;;5038771;28;20464;-64
2021/08/10 04:08:39;;;;;;;5.83;4.43;;;14.60;99.90;;;;;;5039940;28;20472;-65
2021/08/10 04:11:06;;;;;;;8.23;4.70;;;14.60;99.90;;;;;;5034774;28;20445;-64
2021/08/10 04:13:34;;;;;;;6.63;5.10;;;14.50;99.90;;;;;;5038403;28;20448;-65
2021/08/10 04:16:03;;;;;;;7.90;5.87;;;14.50;99.90;;;;;;5032739;28;21045;-64
2021/08/10 04:18:31;;;;;;;6.93;4.80;;;14.50;99.90;;;;;;5032422;28;20506;-64
2021/08/10 04:20:59;;;;;;;7.90;4.37;;;14.50;99.90;;;;;;5044610;28;20498;-64
2021/08/10 04:23:25;;;;;;;9.20;5.40;;;14.50;99.90;;;;;;5032295;28;20441;-65
2021/08/10 04:25:52;;;;;;;7.73;4.93;;;14.50;99.90;;;;;;5031916;28;20820;-64
2021/08/10 04:28:19;;;;;;;5.90;4.70;;;14.40;99.90;;;;;;5031663;28;20469;-65
2021/08/10 04:30:47;;;;;;;6.40;4.07;;;14.30;99.90;;;;;;5034876;28;20444;-64
2021/08/10 04:33:14;;;;;;;7.00;4.23;;;14.30;99.90;;;;;;5035487;28;20449;-64
2021/08/10 04:35:41;;;;;;;6.60;5.80;;;14.20;99.90;;;;;;5037555;28;20490;-63
2021/08/10 04:38:10;;;;;;;9.40;6.03;;;14.20;99.90;;;;;;5041970;28;20902;-63
2021/08/10 04:40:36;;;;;;;11.70;5.17;;;14.20;99.90;;;;;;5039071;28;20453;-64
2021/08/10 04:43:04;;;;;;;13.33;9.37;;;14.20;99.90;;;;;;5039270;28;20442;-64
2021/08/10 04:45:30;;;;;;;6.33;5.73;;;14.20;99.90;;;;;;5035431;28;20448;-64
2021/08/10 04:47:57;;;;;;;5.90;5.30;;;14.20;99.90;;;;;;5042673;28;20467;-63
2021/08/10 04:50:24;;;;;;;13.00;5.63;;;14.10;99.90;;;;;;5039589;28;20452;-64
2021/08/10 04:52:51;;;;;;;7.83;5.27;;;14.10;99.90;;;;;;5044257;28;20444;-64
2021/08/10 04:55:19;;;;;;;7.20;4.70;;;14.20;99.90;;;;;;5040669;28;20885;-64
2021/08/10 04:57:46;;;;;;;8.53;6.50;;;14.10;99.90;;;;;;5043129;28;20479;-63
2021/08/10 05:00:14;;;;;;;9.23;6.30;;;14.10;99.90;;;;;;5035325;28;20511;-63
2021/08/10 05:02:40;;;;;;;8.20;4.77;;;14.10;99.90;;;;;;5036799;28;20444;-63
2021/08/10 05:05:08;;;;;;;5.63;4.70;;;14.10;99.90;;;;;;5041503;28;20444;-62
2021/08/10 05:07:35;;;;;;;6.93;5.53;;;14.20;99.90;;;;;;5038667;28;20465;-61
2021/08/10 05:10:02;;;;;;;9.27;5.93;;;14.20;99.90;;;;;;5038792;28;20480;-63
2021/08/10 05:12:30;;;;;;;14.60;7.03;;;14.30;99.90;;;;;;5045293;28;20446;-63
2021/08/10 05:14:57;;;;;;;8.20;6.23;;;14.30;99.90;;;;;;5038717;28;20476;-63
2021/08/10 05:17:24;;;;;;;10.20;7.23;;;14.30;99.90;;;;;;5040665;28;20467;-63
2021/08/10 05:19:50;;;;;;;11.00;5.90;;;14.40;99.90;;;;;;5038761;28;20456;-64
2021/08/10 05:22:18;;;;;;;10.03;6.30;;;14.50;99.90;;;;;;5041442;28;20461;-63
2021/08/10 05:24:45;;;;;;;8.47;5.60;;;14.50;99.90;;;;;;5045571;28;20531;-62
2021/08/10 05:27:11;;;;;;;9.50;6.53;;;14.60;99.90;;;;;;5045250;28;20480;-63
2021/08/10 05:29:40;;;;;;;9.50;6.23;;;14.60;99.90;;;;;;5045866;28;20967;-62
2021/08/10 05:32:09;;;;;;;7.03;5.10;;;14.70;99.90;;;;;;5043992;28;20882;-63
2021/08/10 05:34:37;;;;;;;5.73;4.87;;;14.70;99.90;;;;;;5043519;28;20488;-63
2021/08/10 05:37:04;;;;;;;7.93;4.80;;;14.80;99.90;;;;;;5042386;28;20452;-64
2021/08/10 05:39:31;;;;;;;8.07;5.50;;;14.80;99.90;;;;;;5045779;28;21084;-62
2021/08/10 05:41:58;;;;;;;9.20;4.90;;;14.90;99.90;;;;;;5045820;28;20455;-62
2021/08/10 05:44:25;;;;;;;9.90;5.67;;;14.90;99.90;;;;;;5037741;28;20456;-62
2021/08/10 05:46:54;;;;;;;9.83;6.10;;;14.90;99.90;;;;;;5045634;28;20444;-63
2021/08/10 05:49:21;;;;;;;6.07;5.40;;;15.00;99.90;;;;;;5038617;28;20444;-62
2021/08/10 05:51:48;;;;;;;5.93;4.50;;;15.00;99.90;;;;;;5045354;28;20446;-64
2021/08/10 05:54:15;;;;;;;8.50;5.93;;;15.10;99.90;;;;;;5043761;28;20454;-64
2021/08/10 05:56:42;;;;;;;8.03;6.53;;;15.20;99.90;;;;;;5044279;28;20449;-64
2021/08/10 05:59:09;;;;;;;12.50;6.60;;;15.20;99.90;;;;;;5042226;28;20483;-64
2021/08/10 06:01:36;;;;;;;7.90;5.83;;;15.20;99.90;;;;;;5045219;28;20494;-65
2021/08/10 06:04:05;;;;;;;8.63;6.60;;;15.30;99.90;;;;;;5045141;28;20517;-64
2021/08/10 06:06:34;;;;;;;8.47;6.90;;;15.40;99.90;;;;;;5042064;28;20928;-63
2021/08/10 06:09:00;;;;;;;10.07;6.47;;;15.50;99.90;;;;;;5041927;28;20496;-63
2021/08/10 06:11:27;;;;;;;9.77;7.20;;;15.50;99.90;;;;;;5049304;28;20437;-61
2021/08/10 06:13:54;;;;;;;9.47;7.30;;;15.60;99.90;;;;;;5041896;28;20453;-64
2021/08/10 06:16:21;;;;;;;10.27;6.83;;;15.70;99.90;;;;;;5041465;28;20480;-63
2021/08/10 06:18:47;;;;;;;8.87;7.30;;;15.80;99.90;;;;;;5041532;28;20866;-64
2021/08/10 06:21:16;;;;;;;12.10;7.67;;;15.80;99.90;;;;;;5042678;28;20954;-64
2021/08/10 06:23:43;;;;;;;10.27;7.40;;;15.90;99.90;;;;;;5045405;28;20449;-63
2021/08/10 06:26:09;;;;;;;13.30;10.47;;;16.00;99.90;;;;;;5041264;28;20531;-65
2021/08/10 06:28:36;;;;;;;13.90;8.23;;;16.10;99.90;;;;;;5041408;28;20841;-64
2021/08/10 06:31:04;;;;;;;10.23;7.60;;;16.40;99.90;;;;;;5041636;28;20457;-64
2021/08/10 06:33:30;;;;;;;7.93;7.13;;;16.70;99.90;;;;;;5036735;28;20467;-63
2021/08/10 06:35:57;;;;;;;8.97;7.23;;;17.00;99.90;;;;;;5044779;28;20480;-63
2021/08/10 06:38:25;;;;;;;7.73;6.80;;;17.20;99.90;;;;;;5041485;28;20461;-64
2021/08/10 06:40:52;;;;;;;8.50;6.63;;;17.50;99.90;;;;;;5042938;28;20452;-64
2021/08/10 06:43:19;;;;;;;7.80;7.10;;;17.70;99.90;;;;;;5036809;28;20456;-64
2021/08/10 06:45:45;;;;;;;7.83;7.03;;;17.80;99.90;;;;;;5044854;28;20798;-64
2021/08/10 06:48:12;;;;;;;8.07;6.30;;;17.80;99.90;;;;;;5042680;28;20800;-64
2021/08/10 06:50:39;;;;;;;8.00;6.90;;;17.90;99.90;;;;;;5040679;28;20454;-65
2021/08/10 06:53:06;;;;;;;6.53;5.97;;;18.00;99.90;;;;;;5047545;28;20448;-65
2021/08/10 06:55:34;;;;;;;7.53;6.23;;;18.10;99.90;;;;;;5035575;28;20491;-65
2021/08/10 06:58:00;;;;;;;7.73;6.00;;;18.10;99.90;;;;;;5040989;28;20839;-62
2021/08/10 07:00:27;;;;;;;8.63;6.97;;;18.10;99.90;;;;;;5048830;28;20444;-65
2021/08/10 07:02:54;;;;;;;12.60;7.50;;;18.10;99.90;;;;;;5040553;28;20457;-64
2021/08/10 07:05:21;;;;;;;6.93;6.33;;;18.20;99.90;;;;;;5042140;28;22378;-64
2021/08/10 07:07:48;;;;;;;8.23;7.50;;;18.20;99.90;;;;;;5047617;28;20467;-65
2021/08/10 07:10:14;;;;;;;6.90;5.87;;;18.30;99.90;;;;;;5043591;28;20452;-64
2021/08/10 07:12:42;;;;;;;7.13;5.80;;;18.50;99.90;;;;;;5043967;28;20455;-61
2021/08/10 07:15:09;;;;;;;8.17;6.73;;;18.80;99.90;;;;;;5043149;28;20606;-64
2021/08/10 07:17:36;;;;;;;11.53;6.40;;;18.90;99.90;;;;;;5035127;28;20461;-65
2021/08/10 07:20:03;;;;;;;8.27;6.63;;;19.10;99.90;;;;;;5039102;28;20452;-63
2021/08/10 07:22:29;;;;;;;11.30;5.83;;;19.30;99.90;;;;;;5036412;28;20467;-64
2021/08/10 07:24:56;;;;;;;6.73;6.10;;;19.40;99.90;;;;;;5042485;28;20444;-62
2021/08/10 07:27:23;;;;;;;6.60;6.00;;;19.80;99.90;;;;;;5043868;28;20463;-63
2021/08/10 07:29:51;;;;;;;7.03;6.17;;;19.80;99.90;;;;;;5043950;28;20448;-62
2021/08/10 07:32:18;;;;;;;7.33;6.77;;;19.90;99.90;;;;;;5041990;28;20471;-63
2021/08/10 07:34:45;;;;;;;6.80;6.20;;;19.90;99.90;;;;;;5043816;28;20806;-62
2021/08/10 07:37:12;;;;;;;6.30;5.80;;;20.00;99.90;;;;;;5042350;28;20467;-61
2021/08/10 07:39:38;;;;;;;7.87;5.70;;;20.30;99.90;;;;;;5040547;28;20499;-63
2021/08/10 07:42:05;;;;;;;8.23;7.23;;;20.40;99.90;;;;;;5040204;28;20445;-63
2021/08/10 07:44:32;;;;;;;8.87;7.13;;;20.60;99.90;;;;;;5042925;28;20813;-63
2021/08/10 07:47:02;;;;;;;9.43;8.63;;;20.60;99.90;;;;;;5043554;28;20441;-64
2021/08/10 07:49:29;;;;;;;8.67;7.87;;;20.60;99.90;;;;;;5043684;28;20448;-64
2021/08/10 07:51:56;;;;;;;8.90;8.10;;;20.60;99.90;;;;;;5041120;28;20859;-60
2021/08/10 07:54:22;;;;;;;8.57;7.87;;;20.90;99.90;;;;;;5044800;28;20448;-60
2021/08/10 07:56:49;;;;;;;10.03;9.00;;;21.10;99.90;;;;;;5038951;28;21067;-60
2021/08/10 07:59:16;;;;;;;9.13;8.63;;;21.50;99.90;;;;;;5045816;28;20448;-62
2021/08/10 08:01:42;;;;;;;11.27;10.53;;;21.90;99.90;;;;;;5051735;28;20448;-62
2021/08/10 08:04:10;;;;;;;11.93;11.23;;;21.90;99.90;;;;;;5052163;28;20451;-59
2021/08/10 08:06:37;;;;;;;12.53;11.93;;;21.80;99.90;;;;;;5051880;28;20432;-60
2021/08/10 08:09:03;;;;;;;14.00;13.13;;;21.90;99.90;;;;;;5051472;28;20471;-65
2021/08/10 08:11:30;;;;;;;14.63;13.83;;;21.90;99.90;;;;;;5050479;28;20444;-64
2021/08/10 08:13:57;;;;;;;13.50;12.90;;;21.80;99.90;;;;;;5051767;28;20444;-60
2021/08/10 08:16:24;;;;;;;15.63;14.63;;;21.90;99.90;;;;;;5051786;28;20476;-61
2021/08/10 08:18:50;;;;;;;15.40;14.60;;;22.20;99.90;;;;;;5051792;28;20854;-59
2021/08/10 08:21:18;;;;;;;16.37;15.43;;;22.30;99.90;;;;;;5051626;28;20448;-64
2021/08/10 08:23:45;;;;;;;16.40;15.60;;;22.40;99.90;;;;;;5051783;28;20455;-63
2021/08/10 08:26:12;;;;;;;16.87;16.00;;;22.60;99.90;;;;;;5050080;28;20436;-63
2021/08/10 08:28:38;;;;;;;16.77;15.80;;;22.60;99.90;;;;;;5050993;28;20917;-64
2021/08/10 08:31:05;;;;;;;17.03;15.83;;;22.70;99.90;;;;;;5031691;28;20803;-62
2021/08/10 08:33:32;;;;;;;17.60;16.70;;;22.90;99.90;;;;;;5031673;28;20445;-63
2021/08/10 08:35:58;;;;;;;17.57;16.67;;;23.00;99.90;;;;;;5031083;28;20488;-65
2021/08/10 08:38:26;;;;;;;18.87;17.60;;;23.10;99.90;;;;;;5041374;28;22087;-64
2021/08/10 08:40:53;;;;;;;18.70;17.83;;;23.30;99.90;;;;;;5039455;28;20444;-65
2021/08/10 08:43:24;;;;;;;18.63;17.83;;;23.50;99.90;;;;;;5041211;28;20476;-63
2021/08/10 08:45:51;;;;;;;19.13;18.07;;;23.40;99.90;;;;;;5043110;28;20452;-63
2021/08/10 08:48:18;;;;;;;21.10;19.70;;;23.60;99.90;;;;;;5041254;28;20464;-64
2021/08/10 08:50:49;;;;;;;18.80;17.80;;;23.60;99.90;;;;;;5042963;28;20444;-64
2021/08/10 08:53:16;;;;;;;19.07;17.90;;;24.00;99.90;;;;;;5041148;28;20962;-65
2021/08/10 08:55:45;;;;;;;21.27;19.70;;;24.00;99.90;;;;;;5044113;28;20472;-64
2021/08/10 08:58:12;;;;;;;19.73;18.77;;;24.00;99.90;;;;;;5042201;28;20567;-62
2021/08/10 09:00:38;;;;;;;19.30;18.40;;;24.20;99.90;;;;;;5049491;28;20444;-64
2021/08/10 09:03:05;;;;;;;19.60;18.80;;;24.10;99.90;;;;;;5049046;28;20821;-62
2021/08/10 09:05:34;;;;;;;18.90;18.00;;;23.90;99.90;;;;;;5042332;28;20464;-65
2021/08/10 09:08:25;;;;;;;20.07;19.10;;;23.60;99.90;;;;;;5049295;28;20534;-65
2021/08/10 09:10:55;;;;;;;19.73;18.63;;;23.50;99.90;;;;;;5044897;28;20501;-62
2021/08/10 09:13:22;;;;;;;19.43;18.63;;;23.30;99.90;;;;;;5046533;28;20954;-64
2021/08/10 09:15:49;;;;;;;18.73;17.83;;;22.90;99.90;;;;;;5045919;28;20846;-65
2021/08/10 09:18:18;;;;;;;19.90;19.00;;;22.70;99.90;;;;;;5047065;28;20468;-63
2021/08/10 09:21:06;;;;;;;19.10;18.30;;;22.30;99.90;;;;;;5049411;28;20513;-64
2021/08/10 09:23:42;;;;;;;19.67;18.87;;;22.30;99.90;;;;;;5039324;28;20451;-65
2021/08/10 09:26:12;;;;;;;19.37;18.50;;;22.30;99.90;;;;;;5052400;28;20454;-65
2021/08/10 09:28:39;;;;;;;20.03;18.93;;;22.40;99.90;;;;;;5045596;28;20465;-64
2021/08/10 09:31:32;;;;;;;20.73;19.07;;;22.50;99.90;;;;;;5045512;28;20968;-64
2021/08/10 09:34:00;;;;;;;19.17;18.30;;;22.90;99.90;;;;;;5049108;28;20960;-61
2021/08/10 09:36:28;;;;;;;18.77;17.97;;;23.50;99.90;;;;;;5048093;28;20475;-64
2021/08/10 09:38:56;;;;;;;19.60;18.70;;;23.90;99.90;;;;;;5043561;28;20492;-63
2021/08/10 09:41:25;;;;;;;19.60;18.50;;;24.20;99.90;;;;;;5047796;28;20974;-65
2021/08/10 09:44:13;;;;;;;19.53;18.63;;;24.60;99.90;;;;;;5049122;28;20444;-63
2021/08/10 09:46:47;;;;;;;20.97;19.87;;;24.90;99.90;;;;;;5042833;28;20444;-64
2021/08/10 09:49:14;;;;;;;20.13;19.33;;;25.00;99.90;;;;;;5047344;28;20468;-63
2021/08/10 09:51:43;;;;;;;20.67;19.87;;;25.10;99.90;;;;;;5045367;28;20455;-65
2021/08/10 09:54:12;;;;;;;20.47;19.50;;;25.30;99.90;;;;;;5045980;28;21276;-63
2021/08/10 09:56:48;;;;;;;20.83;19.93;;;25.00;99.90;;;;;;5051080;28;20841;-63
2021/08/10 09:59:16;;;;;;;20.43;19.60;;;25.00;99.90;;;;;;5046653;28;20463;-64
2021/08/10 10:01:43;;;;;;;20.60;19.70;;;25.20;99.90;;;;;;5048705;28;20974;-66
2021/08/10 10:04:21;;;;;;;22.00;20.90;;;25.60;99.90;;;;;;5041669;28;21053;-62
2021/08/10 10:06:50;;;;;;;20.43;19.43;;;25.60;99.90;;;;;;5048734;28;20952;-63
2021/08/10 10:09:17;;;;;;;22.87;21.73;;;25.30;99.90;;;;;;5043243;28;20833;-61
2021/08/10 10:11:48;;;;;;;21.40;20.30;;;25.20;99.90;;;;;;5041766;28;20441;-64
2021/08/10 10:14:15;;;;;;;21.00;20.00;;;25.10;99.90;;;;;;5043415;28;20445;-65
2021/08/10 10:16:44;;;;;;;21.60;20.70;;;25.50;99.90;;;;;;5045406;28;20475;-63
2021/08/10 10:19:12;;;;;;;22.10;20.90;;;25.80;99.90;;;;;;5044327;28;20472;-63
2021/08/10 10:21:41;;;;;;;21.50;20.60;;;26.10;99.90;;;;;;5041641;28;20448;-64
2021/08/10 10:24:10;;;;;;;21.17;20.27;;;26.70;99.90;;;;;;5042440;28;20970;-62
2021/08/10 10:26:39;;;;;;;22.63;21.67;;;26.70;97.60;;;;;;5047835;28;20939;-62
2021/08/10 10:29:09;;;;;;;21.07;20.17;;;26.40;97.10;;;;;;5041855;28;20472;-64
2021/08/10 10:31:36;;;;;;;21.57;20.50;;;26.10;97.90;;;;;;5042061;28;20826;-63
2021/08/10 10:34:02;;;;;;;20.33;19.53;;;25.90;98.80;;;;;;5036149;28;20514;-66
2021/08/10 10:36:30;;;;;;;21.83;20.60;;;26.00;97.40;;;;;;5044861;28;20483;-63
2021/08/10 10:38:59;;;;;;;22.80;21.70;;;26.70;96.90;;;;;;5039255;28;20838;-64
2021/08/10 10:41:33;;;;;;;23.30;22.00;;;27.00;94.80;;;;;;5043573;28;20445;-63
2021/08/10 10:44:00;;;;;;;22.87;21.70;;;27.60;92.40;;;;;;5041438;28;20451;-60
2021/08/10 10:46:31;;;;;;;21.60;20.70;;;26.70;90.50;;;;;;5043346;28;20440;-61
2021/08/10 10:48:59;;;;;;;21.63;20.73;;;25.50;92.20;;;;;;5041474;28;20464;-61
2021/08/10 10:51:30;;;;;;;21.17;20.30;;;24.90;95.20;;;;;;5044738;28;20444;-62
2021/08/10 10:54:28;;;;;;;22.73;21.50;;;24.50;98.40;;;;;;5044775;28;20452;-63
2021/08/10 10:56:57;;;;;;;20.80;20.00;;;24.40;99.60;;;;;;5042879;28;20481;-64
2021/08/10 10:59:35;;;;;;;21.10;20.30;;;24.40;99.90;;;;;;5073885;22;20492;-62
2021/08/10 11:02:17;;;;;;;21.67;20.67;;;24.20;99.90;;;;;;5057405;28;20921;-63
2021/08/10 11:05:18;;;;;;;20.30;19.50;;;24.20;99.90;;;;;;5063971;28;20814;-63
2021/08/10 11:07:46;;;;;;;21.13;20.13;;;24.20;99.90;;;;;;5051932;28;20456;-61
2021/08/10 11:10:37;;;;;;;21.60;20.80;;;24.10;99.90;;;;;;5061840;28;20458;-63
2021/08/10 11:13:04;;;;;;;21.77;20.90;;;24.00;99.90;;;;;;5063893;28;20435;-63
2021/08/10 11:15:56;;;;;;;22.27;20.73;;;24.20;99.90;;;;;;5055330;28;20456;-63
2021/08/10 11:18:24;;;;;;;21.97;20.97;;;23.90;99.90;;;;;;5061451;28;20505;-63
2021/08/10 11:20:53;;;;;;;20.67;19.77;;;24.20;99.90;;;;;;5059562;28;20810;-63
2021/08/10 11:23:38;;;;;;;21.47;20.63;;;24.50;99.90;;;;;;5062446;28;20444;-63
2021/08/10 11:26:40;;;;;;;21.63;20.70;;;25.00;99.90;;;;;;5057247;28;20452;-63
2021/08/10 11:29:09;;;;;;;22.00;21.20;;;26.00;99.90;;;;;;5058243;28;20470;-63
2021/08/10 11:31:53;;;;;;;23.10;22.00;;;26.70;98.20;;;;;;5063684;28;20479;-62
2021/08/10 11:34:38;;;;;;;24.53;23.40;;;27.50;94.40;;;;;;5061706;28;20549;-64
2021/08/10 11:37:27;;;;;;;22.90;21.90;;;28.30;89.40;;;;;;5060335;28;20511;-62
2021/08/10 11:40:15;;;;;;;22.83;21.83;;;27.40;90.00;;;;;;5056036;28;20930;-63
2021/08/10 11:42:54;;;;;;;23.03;22.13;;;27.00;90.50;;;;;;5049231;28;20454;-62
2021/08/10 11:45:21;;;;;;;23.23;22.33;;;28.90;83.70;;;;;;5062300;28;20448;-61
2021/08/10 11:47:58;;;;;;;22.90;21.83;;;30.10;77.30;;;;;;5063409;28;20453;-61
2021/08/10 11:50:27;;;;;;;23.80;22.70;;;31.40;62.40;;;;;;5061851;28;20832;-63
2021/08/10 11:52:54;;;;;;;24.50;23.20;;;30.10;63.10;;;;;;5063374;28;20435;-62
2021/08/10 11:55:28;;;;;;;23.37;22.37;;;32.00;61.60;;;;;;5061916;28;20476;-61
2021/08/10 11:58:01;;;;;;;24.07;23.10;;;32.80;54.00;;;;;;5063309;28;20490;-61
2021/08/10 12:00:29;;;;;;;23.80;22.90;;;34.30;53.60;;;;;;5062980;28;20445;-62
2021/08/10 12:02:56;;;;;;;23.93;22.93;;;34.70;48.00;;;;;;5063410;28;20815;-61
2021/08/10 12:05:24;;;;;;;23.87;22.63;;;32.70;49.30;;;;;;5060561;28;20446;-60
2021/08/10 12:07:53;;;;;;;23.20;22.20;;;29.80;54.70;;;;;;5059947;28;20992;-61
2021/08/10 12:10:21;;;;;;;22.40;21.60;;;29.00;58.80;;;;;;5061771;28;20825;-62
2021/08/10 12:12:48;;;;;;;22.90;21.80;;;29.60;62.00;;;;;;5062873;28;20439;-64
2021/08/10 12:15:35;;;;;;;23.80;22.70;;;28.90;60.50;;;;;;5061607;28;20447;-62
2021/08/10 12:18:02;;;;;;;22.90;21.97;;;31.20;62.20;;;;;;5059720;28;20862;-66
2021/08/10 12:20:29;;;;;;;24.63;23.50;;;35.40;51.90;;;;;;5066258;28;20952;-61
2021/08/10 12:23:03;;;;;;;23.40;22.47;;;35.70;46.10;;;;;;5059573;28;20448;-62
2021/08/10 12:25:30;;;;;;;22.85;22.05;;;38.20;44.70;;;;;;5061699;28;20200;-62
2021/08/10 12:28:02;;;;;;;22.67;21.88;;;40.50;37.90;;;;;;5062948;28;20792;-61
2021/08/10 12:30:32;;;;;;;23.48;22.48;;;42.30;36.10;;;;;;5066847;28;20255;-62
2021/08/10 12:33:22;;;;;;;22.77;21.83;;;44.30;33.20;;;;;;5059426;28;20204;-62
2021/08/10 12:36:07;;;;;;;22.52;21.63;;;46.40;30.20;;;;;;5054499;28;20681;-62
2021/08/10 12:38:36;;;;;;;22.08;21.17;;;46.80;28.30;;;;;;5060250;28;20232;-62
2021/08/10 12:41:03;;;;;;;21.60;20.85;;;47.20;27.60;;;;;;5059545;28;20197;-61
2021/08/10 12:43:30;;;;;;;22.17;21.38;;;47.40;26.70;;;;;;5062822;28;20188;-62
2021/08/10 12:45:57;;;;;;;23.00;21.73;;;47.40;26.60;;;;;;5056991;28;20201;-62
2021/08/10 12:48:27;;;;;;;22.58;21.77;;;46.80;26.20;;;;;;5061655;28;20213;-63